Time;durP1;ratioP1;P1;durP2;ratioP2;P2;SDS_P1;SDS_P2;PMS_P1;PMS_P2;Temp;Humidity;BMP_temperature;BMP_pressure;BME280_temperature;BME280_humidity;BME280_pressure;Samples;Min_cycle;Max_cycle;Signal;HPM_P1;HPM_P2
2023/01/16 00:01:46;;;;;;;3.17;1.20;;;2.60;75.00;;;;;;5049156;28;20198;-67
2023/01/16 00:04:15;;;;;;;2.55;1.10;;;2.60;74.70;;;;;;5049505;28;20255;-67
2023/01/16 00:06:43;;;;;;;5.57;1.92;;;2.60;74.30;;;;;;5049963;28;20537;-66
2023/01/16 00:09:10;;;;;;;2.95;1.10;;;2.60;74.10;;;;;;5048484;28;20226;-67
2023/01/16 00:11:37;;;;;;;2.15;1.02;;;2.60;73.90;;;;;;5036053;28;20195;-66
2023/01/16 00:14:05;;;;;;;2.00;0.90;;;2.60;74.20;;;;;;5033738;28;20187;-67
2023/01/16 00:16:32;;;;;;;3.38;1.55;;;2.60;74.30;;;;;;5031885;28;20206;-67
2023/01/16 00:18:59;;;;;;;4.30;1.67;;;2.50;74.40;;;;;;5034916;28;20220;-67
2023/01/16 00:21:27;;;;;;;2.88;1.30;;;2.50;74.60;;;;;;5048754;28;20190;-67
2023/01/16 00:23:55;;;;;;;3.17;1.60;;;2.50;74.70;;;;;;5044920;28;20217;-67
2023/01/16 00:26:22;;;;;;;2.80;1.65;;;2.60;74.90;;;;;;5049733;28;20190;-66
2023/01/16 00:28:50;;;;;;;2.60;1.45;;;2.60;74.90;;;;;;5040071;28;20412;-68
2023/01/16 00:31:17;;;;;;;3.25;1.38;;;2.60;75.10;;;;;;5039821;28;20245;-66
2023/01/16 00:33:45;;;;;;;3.08;0.80;;;2.70;74.90;;;;;;5039904;28;20195;-67
2023/01/16 00:36:13;;;;;;;2.55;1.40;;;2.70;74.70;;;;;;5052325;28;20551;-66
2023/01/16 00:38:41;;;;;;;2.88;1.10;;;2.80;74.90;;;;;;5034902;28;20515;-68
2023/01/16 00:41:08;;;;;;;2.67;1.00;;;2.80;74.50;;;;;;5047337;28;20206;-68
2023/01/16 00:43:35;;;;;;;3.85;1.00;;;2.70;74.60;;;;;;5032036;28;20261;-67
2023/01/16 00:46:02;;;;;;;2.80;1.05;;;2.70;74.70;;;;;;5031888;28;20365;-67
2023/01/16 00:48:29;;;;;;;2.40;1.50;;;2.60;75.20;;;;;;5032119;28;20277;-67
2023/01/16 00:50:56;;;;;;;2.28;0.85;;;2.50;75.90;;;;;;5032772;28;20610;-67
2023/01/16 00:53:23;;;;;;;4.57;0.90;;;2.30;76.70;;;;;;5032803;28;20399;-67
2023/01/16 00:55:53;;;;;;;2.15;0.90;;;2.30;76.90;;;;;;5032335;28;20600;-66
2023/01/16 00:58:20;;;;;;;3.20;1.10;;;2.30;77.00;;;;;;5032523;28;20287;-66
2023/01/16 01:00:49;;;;;;;2.58;1.02;;;2.30;77.20;;;;;;5032416;28;20593;-67
2023/01/16 01:03:16;;;;;;;2.38;1.35;;;2.30;77.30;;;;;;5032446;28;20187;-68
2023/01/16 01:05:43;;;;;;;3.00;1.10;;;2.30;77.50;;;;;;5032533;28;20215;-67
2023/01/16 01:08:10;;;;;;;2.20;0.75;;;2.20;77.90;;;;;;5033794;28;20273;-66
2023/01/16 01:10:38;;;;;;;2.30;0.80;;;2.20;78.00;;;;;;5036473;28;20265;-66
2023/01/16 01:13:07;;;;;;;2.70;1.55;;;2.20;77.70;;;;;;5036506;28;20191;-66
2023/01/16 01:15:34;;;;;;;3.15;1.20;;;2.20;77.90;;;;;;5036569;28;20297;-67
2023/01/16 01:18:01;;;;;;;3.45;1.10;;;2.30;77.80;;;;;;5036074;28;20705;-67
2023/01/16 01:20:28;;;;;;;3.50;1.35;;;2.20;77.90;;;;;;5036384;28;20249;-66
2023/01/16 01:22:55;;;;;;;2.53;1.20;;;2.20;77.50;;;;;;5036150;28;20277;-67
2023/01/16 01:25:22;;;;;;;2.08;0.80;;;2.30;77.80;;;;;;5036344;28;20226;-66
2023/01/16 01:27:49;;;;;;;1.70;0.90;;;2.30;77.40;;;;;;5036345;28;20656;-66
2023/01/16 01:30:19;;;;;;;2.42;0.90;;;2.40;77.50;;;;;;5036189;28;20254;-67
2023/01/16 01:32:46;;;;;;;1.65;0.80;;;2.30;77.40;;;;;;5036088;28;20191;-66
2023/01/16 01:35:12;;;;;;;2.35;1.00;;;2.30;77.40;;;;;;5035935;28;20226;-67
2023/01/16 01:37:39;;;;;;;2.78;0.80;;;2.40;77.40;;;;;;5035961;28;20191;-66
2023/01/16 01:40:08;;;;;;;1.90;0.82;;;2.40;77.20;;;;;;5035970;28;20194;-67
2023/01/16 01:42:51;;;;;;;1.88;0.90;;;2.30;77.30;;;;;;5035731;28;20223;-67
2023/01/16 01:45:23;;;;;;;3.60;1.30;;;2.30;77.30;;;;;;5049471;28;20226;-67
2023/01/16 01:47:55;;;;;;;2.00;1.10;;;2.40;77.30;;;;;;5055583;28;20285;-66
2023/01/16 01:50:37;;;;;;;1.90;1.20;;;2.30;77.00;;;;;;5055506;28;20225;-67
2023/01/16 01:53:10;;;;;;;2.17;1.13;;;2.30;77.40;;;;;;5055767;28;20270;-67
2023/01/16 01:55:40;;;;;;;3.50;1.63;;;2.30;77.70;;;;;;5055634;28;20285;-67
2023/01/16 01:58:07;;;;;;;2.38;1.00;;;2.30;77.70;;;;;;5055571;28;20277;-67
2023/01/16 02:00:35;;;;;;;2.15;1.25;;;2.40;77.50;;;;;;5055120;28;20282;-66
2023/01/16 02:03:09;;;;;;;2.55;1.10;;;2.50;77.50;;;;;;5055331;28;20645;-66
2023/01/16 02:05:40;;;;;;;1.92;1.02;;;2.50;77.30;;;;;;5055367;28;20225;-68
2023/01/16 02:08:07;;;;;;;3.10;1.20;;;2.50;77.20;;;;;;5055385;28;20281;-66
2023/01/16 02:10:39;;;;;;;2.63;1.00;;;2.50;76.80;;;;;;5055032;28;20329;-67
2023/01/16 02:13:06;;;;;;;2.22;1.05;;;2.50;77.10;;;;;;5055026;28;20281;-66
2023/01/16 02:15:33;;;;;;;3.40;1.20;;;2.50;76.90;;;;;;5054926;28;20222;-66
2023/01/16 02:20:56;;;;;;;2.20;1.15;;;2.50;77.10;;;;;;5043803;28;20197;-67
2023/01/16 02:23:49;;;;;;;1.83;0.90;;;2.50;76.80;;;;;;5055096;28;20226;-67
2023/01/16 02:26:51;;;;;;;3.22;1.40;;;2.50;76.80;;;;;;5046815;28;20305;-66
2023/01/16 02:30:03;;;;;;;2.90;1.10;;;2.40;77.00;;;;;;5055239;28;20280;-66
2023/01/16 02:32:43;;;;;;;2.15;1.02;;;2.40;76.70;;;;;;5026276;28;20353;-67
2023/01/16 02:35:31;;;;;;;3.15;1.40;;;2.40;76.70;;;;;;5055042;28;20244;-66
2023/01/16 02:38:03;;;;;;;2.13;0.88;;;2.30;76.70;;;;;;5054555;28;20248;-67
2023/01/16 02:40:41;;;;;;;3.20;1.38;;;2.30;76.90;;;;;;5054784;28;20283;-67
2023/01/16 02:43:20;;;;;;;2.67;1.30;;;2.30;76.90;;;;;;5054614;28;20190;-67
2023/01/16 02:45:58;;;;;;;3.85;1.13;;;2.30;76.90;;;;;;5054667;28;20325;-65
2023/01/16 02:48:33;;;;;;;3.22;1.33;;;2.40;77.10;;;;;;5054809;28;20604;-67
2023/01/16 02:51:07;;;;;;;2.20;1.05;;;2.30;77.40;;;;;;5054541;28;20257;-67
2023/01/16 02:53:50;;;;;;;2.30;1.20;;;2.20;77.30;;;;;;5053922;28;20272;-67
2023/01/16 02:56:22;;;;;;;1.90;1.00;;;2.10;77.70;;;;;;5054048;28;20225;-67
2023/01/16 02:58:50;;;;;;;2.67;1.27;;;2.10;77.90;;;;;;5054421;28;20720;-68
2023/01/16 03:01:19;;;;;;;3.70;1.20;;;2.00;78.00;;;;;;5054215;28;20285;-67
2023/01/16 03:04:03;;;;;;;2.15;1.10;;;1.90;78.70;;;;;;5054162;28;20683;-67
2023/01/16 03:06:44;;;;;;;2.40;1.05;;;1.90;78.90;;;;;;5054118;28;20284;-67
2023/01/16 03:09:35;;;;;;;2.22;1.00;;;1.90;79.00;;;;;;5053856;28;20213;-67
2023/01/16 03:12:16;;;;;;;1.90;1.00;;;1.90;78.80;;;;;;5054032;28;20648;-67
2023/01/16 03:14:52;;;;;;;2.97;1.58;;;1.90;78.80;;;;;;5054234;28;20229;-67
2023/01/16 03:17:31;;;;;;;2.15;1.23;;;2.00;78.90;;;;;;5053784;28;20281;-67
2023/01/16 03:20:13;;;;;;;2.20;1.40;;;1.90;78.90;;;;;;5054032;28;20190;-67
2023/01/16 03:22:47;;;;;;;4.00;1.23;;;1.90;78.90;;;;;;5054050;28;20289;-67
2023/01/16 03:25:25;;;;;;;3.88;1.23;;;1.90;79.20;;;;;;5053987;28;20281;-67
2023/01/16 03:28:00;;;;;;;1.95;1.15;;;1.90;78.90;;;;;;5053683;28;20189;-68
2023/01/16 03:30:32;;;;;;;3.33;1.42;;;1.90;79.00;;;;;;5052753;28;20295;-67
2023/01/16 03:33:05;;;;;;;2.85;1.35;;;1.90;79.00;;;;;;5053924;28;20703;-67
2023/01/16 03:35:37;;;;;;;3.97;1.70;;;1.90;79.40;;;;;;5053952;28;20641;-68
2023/01/16 03:38:07;;;;;;;4.35;1.60;;;1.90;78.90;;;;;;5053834;28;20194;-67
2023/01/16 03:40:37;;;;;;;3.17;1.90;;;1.90;78.90;;;;;;5053617;28;20230;-67
2023/01/16 03:43:09;;;;;;;2.38;1.60;;;1.90;78.90;;;;;;5053470;28;20198;-67
2023/01/16 03:45:41;;;;;;;3.05;1.80;;;1.90;78.80;;;;;;5052832;28;20264;-67
2023/01/16 03:48:12;;;;;;;2.42;1.45;;;1.90;79.00;;;;;;5053172;28;20190;-67
2023/01/16 03:50:45;;;;;;;2.30;1.25;;;1.80;79.20;;;;;;5053341;28;20317;-67
2023/01/16 03:53:15;;;;;;;2.70;1.30;;;1.80;79.50;;;;;;5053329;28;20281;-67
2023/01/16 03:55:48;;;;;;;3.17;1.75;;;1.80;79.60;;;;;;5053204;28;20229;-67
2023/01/16 03:58:19;;;;;;;3.90;2.13;;;1.70;79.80;;;;;;5053261;28;20245;-67
2023/01/16 04:00:51;;;;;;;5.25;3.15;;;1.70;80.20;;;;;;5053222;28;20232;-67
2023/01/16 04:03:25;;;;;;;4.75;2.60;;;1.70;80.00;;;;;;5053257;28;20221;-67
2023/01/16 04:05:59;;;;;;;3.42;2.03;;;1.70;79.80;;;;;;5053385;28;20281;-67
2023/01/16 04:08:29;;;;;;;2.67;1.35;;;1.60;79.90;;;;;;5052844;28;20186;-67
2023/01/16 04:10:56;;;;;;;2.58;1.45;;;1.60;80.30;;;;;;5052986;28;20226;-67
2023/01/16 04:13:28;;;;;;;2.50;1.25;;;1.60;79.90;;;;;;5053025;28;20229;-68
2023/01/16 04:15:58;;;;;;;4.00;1.40;;;1.60;79.90;;;;;;5052934;28;20201;-67
2023/01/16 04:18:35;;;;;;;2.17;1.20;;;1.60;80.00;;;;;;5052756;28;20285;-67
2023/01/16 04:21:07;;;;;;;2.35;1.20;;;1.60;79.90;;;;;;5052809;28;20249;-67
2023/01/16 04:23:34;;;;;;;3.75;1.80;;;1.60;79.60;;;;;;5053108;28;20336;-67
2023/01/16 04:26:01;;;;;;;1.75;0.98;;;1.60;79.10;;;;;;5053050;28;20571;-67
2023/01/16 04:28:28;;;;;;;2.50;1.00;;;1.60;78.70;;;;;;5052653;28;20277;-67
2023/01/16 04:30:55;;;;;;;2.40;1.42;;;1.50;77.90;;;;;;5052533;28;20632;-67
2023/01/16 04:33:22;;;;;;;2.47;1.20;;;1.50;78.70;;;;;;5052835;28;20274;-67
2023/01/16 04:35:49;;;;;;;2.45;1.10;;;1.40;80.50;;;;;;5052722;28;20229;-67
2023/01/16 04:38:17;;;;;;;2.50;1.13;;;1.30;81.60;;;;;;5052548;28;20285;-67
2023/01/16 04:40:44;;;;;;;2.20;1.50;;;1.20;81.60;;;;;;5052644;28;20281;-67
2023/01/16 04:43:11;;;;;;;2.42;1.10;;;1.10;82.20;;;;;;5052772;28;20541;-66
2023/01/16 04:45:39;;;;;;;2.97;1.77;;;0.90;83.10;;;;;;5052631;28;20313;-67
2023/01/16 04:48:06;;;;;;;2.58;1.13;;;1.00;83.70;;;;;;5052747;28;20221;-67
2023/01/16 04:50:33;;;;;;;2.20;1.10;;;0.80;85.20;;;;;;5052194;28;20752;-67
2023/01/16 04:53:00;;;;;;;6.45;2.03;;;0.80;86.00;;;;;;5052499;28;20238;-67
2023/01/16 04:55:28;;;;;;;5.70;2.40;;;0.80;86.00;;;;;;5052692;28;20277;-67
2023/01/16 04:57:55;;;;;;;3.65;2.00;;;0.80;86.30;;;;;;5052402;28;20277;-68
2023/01/16 05:00:22;;;;;;;4.05;2.60;;;0.80;86.40;;;;;;5052376;28;20194;-67
2023/01/16 05:02:49;;;;;;;4.47;2.30;;;0.80;86.60;;;;;;5052585;28;20623;-67
2023/01/16 05:05:18;;;;;;;4.13;2.35;;;0.90;86.50;;;;;;5052643;28;20277;-67
2023/01/16 05:07:45;;;;;;;2.30;1.35;;;0.80;86.80;;;;;;5052593;28;20520;-67
2023/01/16 05:10:12;;;;;;;3.67;1.30;;;0.90;86.70;;;;;;5052342;28;20317;-67
2023/01/16 05:12:40;;;;;;;2.78;1.42;;;0.90;86.50;;;;;;5051963;28;20281;-66
2023/01/16 05:15:08;;;;;;;2.45;1.35;;;1.00;86.30;;;;;;5052271;28;20229;-67
2023/01/16 05:17:35;;;;;;;3.47;1.98;;;1.00;86.10;;;;;;5052576;28;20601;-67
2023/01/16 05:20:02;;;;;;;4.18;1.95;;;1.00;85.80;;;;;;5052598;28;20289;-67
2023/01/16 05:22:29;;;;;;;2.50;1.50;;;1.10;85.90;;;;;;5052507;28;20281;-67
2023/01/16 05:24:55;;;;;;;4.07;2.22;;;1.00;86.10;;;;;;5051918;28;20226;-68
2023/01/16 05:27:23;;;;;;;4.38;2.35;;;1.10;86.10;;;;;;5052182;28;20240;-67
2023/01/16 05:29:51;;;;;;;4.25;2.25;;;1.00;86.30;;;;;;5052038;28;20213;-67
2023/01/16 05:32:18;;;;;;;2.90;1.63;;;1.00;86.30;;;;;;5052193;28;20232;-67
2023/01/16 05:34:45;;;;;;;5.63;3.00;;;1.00;86.10;;;;;;5052229;28;20282;-67
2023/01/16 05:37:11;;;;;;;3.42;1.70;;;1.10;86.00;;;;;;5052050;28;20199;-67
2023/01/16 05:39:38;;;;;;;5.97;3.00;;;1.10;85.80;;;;;;5051922;28;20233;-67
2023/01/16 05:42:20;;;;;;;5.50;2.20;;;1.10;85.60;;;;;;5052464;28;20206;-67
2023/01/16 05:44:47;;;;;;;8.55;3.78;;;1.10;84.90;;;;;;5051784;28;20230;-67
2023/01/16 05:47:16;;;;;;;5.50;3.67;;;1.20;84.40;;;;;;5052130;28;20716;-66
2023/01/16 05:49:43;;;;;;;3.08;1.45;;;1.30;84.00;;;;;;5052107;28;20285;-67
2023/01/16 05:52:10;;;;;;;2.47;1.38;;;1.20;84.00;;;;;;5051942;28;20328;-67
2023/01/16 05:54:36;;;;;;;2.55;1.17;;;1.20;83.40;;;;;;5054163;28;20204;-67
2023/01/16 05:57:04;;;;;;;2.33;1.00;;;1.10;82.90;;;;;;5055470;28;20733;-67
2023/01/16 05:59:31;;;;;;;2.65;1.20;;;1.10;83.00;;;;;;5055763;28;20281;-68
2023/01/16 06:01:58;;;;;;;3.70;2.30;;;1.10;83.00;;;;;;5055831;28;20194;-67
2023/01/16 06:04:26;;;;;;;2.70;1.20;;;1.10;83.20;;;;;;5055649;28;20277;-67
2023/01/16 06:06:54;;;;;;;2.92;1.40;;;1.00;83.30;;;;;;5055933;28;20191;-67
2023/01/16 06:09:20;;;;;;;2.15;1.13;;;1.00;83.30;;;;;;5055303;28;20226;-67
2023/01/16 06:11:47;;;;;;;1.95;0.80;;;1.00;83.50;;;;;;5055330;28;20317;-67
2023/01/16 06:14:14;;;;;;;2.35;1.27;;;0.90;83.20;;;;;;5055498;28;20240;-67
2023/01/16 06:16:42;;;;;;;2.28;1.20;;;0.80;83.00;;;;;;5055297;28;20232;-66
2023/01/16 06:19:09;;;;;;;2.08;1.08;;;0.70;83.60;;;;;;5055162;28;20198;-67
2023/01/16 06:21:37;;;;;;;2.78;1.00;;;0.60;84.20;;;;;;5066549;28;20680;-67
2023/01/16 06:24:04;;;;;;;2.50;1.20;;;0.60;84.10;;;;;;5065898;28;20273;-67
2023/01/16 06:26:31;;;;;;;2.70;1.17;;;0.60;83.90;;;;;;5072936;28;20285;-67
2023/01/16 06:28:58;;;;;;;2.90;1.55;;;0.70;83.90;;;;;;5074568;28;20288;-67
2023/01/16 06:31:25;;;;;;;3.08;1.55;;;0.70;83.80;;;;;;5073945;28;20267;-67
2023/01/16 06:33:52;;;;;;;2.65;1.42;;;0.70;83.90;;;;;;5074477;28;20276;-67
2023/01/16 06:36:19;;;;;;;2.38;1.40;;;0.70;83.50;;;;;;5074380;28;20621;-66
2023/01/16 06:38:49;;;;;;;3.00;1.50;;;0.70;83.40;;;;;;5072449;28;20185;-66
2023/01/16 06:41:16;;;;;;;3.45;1.75;;;0.70;83.30;;;;;;5074385;28;20280;-66
2023/01/16 06:43:43;;;;;;;2.90;1.75;;;0.80;83.20;;;;;;5073915;28;20272;-67
2023/01/16 06:46:10;;;;;;;2.63;1.50;;;0.80;82.80;;;;;;5069752;28;20613;-67
2023/01/16 06:48:37;;;;;;;3.47;2.20;;;0.90;82.70;;;;;;5073517;28;20276;-67
2023/01/16 06:51:04;;;;;;;5.75;1.90;;;0.90;82.50;;;;;;5073792;28;20224;-67
2023/01/16 06:53:31;;;;;;;4.63;2.20;;;0.90;82.40;;;;;;5073705;28;20194;-68
2023/01/16 06:55:59;;;;;;;3.75;1.88;;;0.90;82.10;;;;;;5073321;28;20229;-67
2023/01/16 06:58:26;;;;;;;3.20;1.77;;;0.90;81.80;;;;;;5074187;28;20604;-67
2023/01/16 07:00:54;;;;;;;4.30;1.92;;;1.00;81.80;;;;;;5074412;28;20208;-67
2023/01/16 07:03:22;;;;;;;3.30;1.58;;;1.00;81.70;;;;;;5074071;28;20198;-66
2023/01/16 07:05:49;;;;;;;2.92;1.60;;;1.00;81.30;;;;;;5073494;28;20524;-66
2023/01/16 07:08:17;;;;;;;3.58;1.30;;;1.00;81.00;;;;;;5074347;28;20671;-66
2023/01/16 07:10:44;;;;;;;4.43;2.15;;;1.00;80.90;;;;;;5074440;28;20213;-66
2023/01/16 07:13:12;;;;;;;3.80;1.90;;;1.00;80.80;;;;;;5074431;28;20280;-66
2023/01/16 07:24:11;;;;;;;3.75;2.10;;;1.10;80.00;;;;;;5073940;28;20205;-67
2023/01/16 07:26:44;;;;;;;3.40;1.70;;;1.10;78.00;;;;;;5073883;28;20602;-67
2023/01/16 07:29:12;;;;;;;4.50;2.63;;;1.20;79.40;;;;;;5073935;28;20280;-66
2023/01/16 07:31:42;;;;;;;5.97;2.40;;;1.50;79.80;;;;;;5044427;28;20260;-67
2023/01/16 07:34:14;;;;;;;5.03;2.85;;;1.80;80.90;;;;;;5064574;28;20643;-66
2023/01/16 07:36:41;;;;;;;13.05;8.82;;;2.10;79.40;;;;;;5073147;28;20233;-66
2023/01/16 07:39:08;;;;;;;6.80;3.67;;;2.20;77.00;;;;;;5073392;28;20239;-66
2023/01/16 07:41:35;;;;;;;5.32;2.90;;;2.40;77.90;;;;;;5073277;28;20240;-66
2023/01/16 07:44:05;;;;;;;5.55;3.22;;;2.80;77.40;;;;;;5072507;28;20656;-66
2023/01/16 07:46:34;;;;;;;8.10;3.83;;;3.10;75.40;;;;;;5062629;28;20549;-67
2023/01/16 07:49:01;;;;;;;4.63;1.95;;;3.40;72.80;;;;;;5033096;28;20194;-68
2023/01/16 07:51:36;;;;;;;6.80;3.58;;;3.70;71.60;;;;;;5040998;28;20313;-68
2023/01/16 07:54:03;;;;;;;7.57;5.03;;;4.20;70.30;;;;;;5056495;28;20194;-68
2023/01/16 07:56:39;;;;;;;8.63;5.05;;;4.50;70.50;;;;;;5052608;28;20248;-67
2023/01/16 07:59:08;;;;;;;7.78;3.03;;;4.70;69.40;;;;;;5060600;28;20702;-67
2023/01/16 08:01:39;;;;;;;6.03;2.97;;;5.00;68.20;;;;;;5071983;28;20656;-67
2023/01/16 08:04:14;;;;;;;4.72;2.78;;;5.20;65.50;;;;;;5072908;28;20193;-67
2023/01/16 08:06:56;;;;;;;3.85;2.88;;;5.40;64.40;;;;;;5072783;28;20276;-67
2023/01/16 08:09:28;;;;;;;4.78;3.10;;;5.60;61.50;;;;;;5072551;28;20232;-67
2023/01/16 08:11:55;;;;;;;5.05;3.00;;;5.80;60.90;;;;;;5072531;28;20228;-67
2023/01/16 08:14:29;;;;;;;5.90;4.03;;;5.90;60.70;;;;;;5071883;28;20217;-68
2023/01/16 08:16:58;;;;;;;10.75;5.22;;;6.00;60.50;;;;;;5071947;28;20200;-67
2023/01/16 08:19:27;;;;;;;6.70;4.80;;;6.20;60.80;;;;;;5072213;28;20208;-67
2023/01/16 08:21:54;;;;;;;7.25;4.60;;;6.30;59.80;;;;;;5072488;28;20199;-67
2023/01/16 08:24:23;;;;;;;10.13;6.22;;;6.40;59.40;;;;;;5072576;28;20614;-67
2023/01/16 08:26:55;;;;;;;10.35;5.60;;;6.40;58.60;;;;;;5072284;28;20625;-67
2023/01/16 08:29:23;;;;;;;6.90;5.20;;;6.30;58.90;;;;;;5072159;28;20225;-67
2023/01/16 08:31:50;;;;;;;6.20;4.78;;;6.10;58.90;;;;;;5072034;28;20300;-67
2023/01/16 08:34:18;;;;;;;13.82;8.80;;;5.90;59.00;;;;;;5071476;28;20225;-68
2023/01/16 08:36:45;;;;;;;13.25;8.55;;;5.80;60.00;;;;;;5071885;28;20299;-68
2023/01/16 08:39:13;;;;;;;11.60;6.85;;;6.10;60.70;;;;;;5072277;28;20243;-68
2023/01/16 08:52:57;;;;;;;9.45;5.60;;;8.20;57.30;;;;;;5052447;28;20676;-68
2023/01/16 08:55:24;;;;;;;7.70;4.95;;;8.70;58.60;;;;;;5052608;28;20235;-68
2023/01/16 08:57:51;;;;;;;7.95;6.18;;;9.30;56.80;;;;;;5052417;28;20285;-67
2023/01/16 09:00:19;;;;;;;5.82;3.72;;;9.70;56.60;;;;;;5052435;28;20647;-68
2023/01/16 09:02:47;;;;;;;4.68;2.60;;;10.10;55.20;;;;;;5052403;28;20639;-68
2023/01/16 09:05:15;;;;;;;4.13;2.30;;;10.30;53.00;;;;;;5052289;28;20196;-68
2023/01/16 09:07:42;;;;;;;3.88;1.92;;;10.50;53.70;;;;;;5052366;28;20683;-67
2023/01/16 09:10:11;;;;;;;4.05;1.80;;;10.70;52.30;;;;;;5052297;28;20232;-67
2023/01/16 09:15:22;;;;;;;3.25;2.17;;;11.10;50.90;;;;;;5052454;28;20291;-68
2023/01/16 09:17:49;;;;;;;2.67;1.92;;;11.30;49.70;;;;;;5052437;28;20238;-67
2023/01/16 09:20:18;;;;;;;3.45;1.95;;;11.30;49.80;;;;;;5051909;28;20196;-67
2023/01/16 09:22:57;;;;;;;3.50;2.38;;;11.30;49.10;;;;;;5052335;28;20226;-67
2023/01/16 09:25:24;;;;;;;4.10;3.08;;;11.10;47.90;;;;;;5052771;28;20225;-67
2023/01/16 09:27:52;;;;;;;4.78;3.65;;;10.90;48.80;;;;;;5051979;28;20281;-67
2023/01/16 09:30:22;;;;;;;3.30;2.17;;;11.00;48.00;;;;;;5055684;28;20289;-67
2023/01/16 09:32:49;;;;;;;5.50;2.50;;;10.80;48.60;;;;;;5056376;28;20672;-67
2023/01/16 09:35:17;;;;;;;2.90;1.83;;;10.50;48.70;;;;;;5056011;28;20285;-68
2023/01/16 09:37:52;;;;;;;2.92;1.95;;;10.50;49.70;;;;;;5045704;28;20286;-67
2023/01/16 09:40:22;;;;;;;2.90;1.80;;;10.30;48.90;;;;;;5055168;28;20288;-67
2023/01/16 09:45:56;;;;;;;3.53;2.28;;;9.90;50.00;;;;;;5047070;28;20688;-68
2023/01/16 09:48:28;;;;;;;3.05;1.90;;;9.70;50.40;;;;;;5046966;28;20229;-67
2023/01/16 09:51:01;;;;;;;4.05;2.42;;;10.10;51.30;;;;;;5043410;28;20206;-67
2023/01/16 09:59:23;;;;;;;5.68;3.45;;;11.50;47.10;;;;;;5046295;28;20715;-67
2023/01/16 10:01:56;;;;;;;3.67;2.60;;;10.90;47.40;;;;;;5049147;28;20201;-67
2023/01/16 10:04:25;;;;;;;5.53;2.63;;;10.50;48.10;;;;;;5048267;28;20194;-67
2023/01/16 10:07:06;;;;;;;4.28;2.85;;;10.20;48.40;;;;;;5048753;28;20285;-67
2023/01/16 10:09:47;;;;;;;5.07;3.40;;;10.10;49.30;;;;;;5045699;28;20282;-67
2023/01/16 10:12:15;;;;;;;4.22;3.15;;;10.60;51.60;;;;;;5047189;28;20234;-67
2023/01/16 10:14:53;;;;;;;3.80;2.20;;;11.80;51.40;;;;;;5048582;28;20206;-67
2023/01/16 10:17:30;;;;;;;4.90;2.78;;;12.30;48.00;;;;;;5045945;28;20198;-67
2023/01/16 10:20:17;;;;;;;3.42;2.10;;;12.10;46.70;;;;;;5044283;28;20194;-67
2023/01/16 10:22:58;;;;;;;4.15;2.85;;;12.40;48.40;;;;;;5044763;28;20718;-67
2023/01/16 10:25:32;;;;;;;4.70;2.45;;;13.50;45.00;;;;;;5049626;28;20248;-68
2023/01/16 10:28:13;;;;;;;4.20;2.50;;;14.10;43.20;;;;;;5047256;28;20226;-67
2023/01/16 10:30:44;;;;;;;3.60;2.70;;;14.60;42.00;;;;;;5045249;28;20480;-68
2023/01/16 10:33:17;;;;;;;5.47;2.60;;;15.00;40.40;;;;;;5046875;28;20527;-68
2023/01/16 10:35:47;;;;;;;4.00;2.10;;;15.60;40.40;;;;;;5049753;28;20939;-68
2023/01/16 10:38:34;;;;;;;2.77;1.97;;;16.10;37.10;;;;;;5045019;28;20528;-68
2023/01/16 10:49:25;;;;;;;2.40;1.30;;;16.40;36.30;;;;;;5046544;28;20445;-67
2023/01/16 10:49:29;;;;;;;3.10;0.80;;;16.00;31.80;;;;;;5069815;28;20466;-68
2023/01/16 10:51:59;;;;;;;2.20;0.80;;;16.20;33.50;;;;;;5065314;28;20992;-68
2023/01/16 10:54:27;;;;;;;1.90;1.00;;;16.50;30.90;;;;;;5060075;28;20978;-68
2023/01/16 10:56:57;;;;;;;2.90;1.20;;;17.30;31.50;;;;;;5065073;28;20524;-68
2023/01/16 10:59:25;;;;;;;3.60;1.20;;;17.80;30.20;;;;;;5073313;28;20494;-69
2023/01/16 11:01:55;;;;;;;2.43;0.97;;;18.00;29.80;;;;;;5061538;28;20519;-68
2023/01/16 11:04:22;;;;;;;2.10;1.03;;;18.10;28.60;;;;;;5057889;28;20507;-68
2023/01/16 11:07:12;;;;;;;2.90;0.93;;;17.80;28.30;;;;;;5066041;28;20479;-68
2023/01/16 11:09:44;;;;;;;2.53;1.17;;;17.30;28.50;;;;;;5067013;28;20519;-67
2023/01/16 11:20:44;;;;;;;1.70;0.77;;;16.00;28.80;;;;;;5066511;28;20914;-68
2023/01/16 11:23:18;;;;;;;2.13;0.70;;;16.30;29.10;;;;;;5065037;28;20448;-67
2023/01/16 11:25:48;;;;;;;2.10;0.83;;;16.60;28.90;;;;;;5067134;28;20522;-68
2023/01/16 11:28:21;;;;;;;1.80;0.90;;;17.00;29.20;;;;;;5067106;28;20450;-67
2023/01/16 11:30:53;;;;;;;1.50;0.60;;;17.30;28.00;;;;;;5064617;28;20502;-67
2023/01/16 11:33:23;;;;;;;1.93;1.10;;;17.50;28.20;;;;;;5062570;28;20490;-68
2023/01/16 11:35:55;;;;;;;1.60;0.70;;;17.90;26.90;;;;;;5068489;28;20513;-68
2023/01/16 11:38:23;;;;;;;3.47;0.80;;;18.00;25.20;;;;;;5061966;28;20536;-68
2023/01/16 11:40:55;;;;;;;1.90;0.80;;;18.00;25.30;;;;;;5062847;28;20489;-68
2023/01/16 11:46:29;;;;;;;4.07;0.67;;;17.60;26.10;;;;;;5065705;28;20443;-68
2023/01/16 11:49:00;;;;;;;2.13;0.90;;;17.10;26.00;;;;;;5068352;28;20519;-68
2023/01/16 11:51:30;;;;;;;1.90;0.83;;;16.50;25.40;;;;;;5060095;28;20444;-68
2023/01/16 11:53:59;;;;;;;1.70;0.70;;;15.90;27.30;;;;;;5059402;28;20464;-67
2023/01/16 11:56:46;;;;;;;1.73;0.70;;;15.40;27.30;;;;;;5063167;28;20451;-67
2023/01/16 11:59:28;;;;;;;1.80;0.90;;;14.80;27.90;;;;;;5064753;28;20475;-68
2023/01/16 12:02:18;;;;;;;2.63;0.97;;;14.40;29.50;;;;;;5064191;28;20862;-68
2023/01/16 12:07:41;;;;;;;2.07;1.00;;;14.20;30.30;;;;;;5063414;28;20918;-67
2023/01/16 12:10:22;;;;;;;2.17;0.80;;;13.90;30.00;;;;;;5064223;28;20478;-68
2023/01/16 12:15:54;;;;;;;1.87;0.70;;;13.30;30.10;;;;;;5061528;28;20439;-68
2023/01/16 12:18:30;;;;;;;2.63;1.10;;;12.90;31.70;;;;;;5065786;28;20534;-67
2023/01/16 12:21:01;;;;;;;2.10;1.07;;;12.70;31.10;;;;;;5056494;28;20612;-67
2023/01/16 12:23:47;;;;;;;2.27;1.20;;;12.60;32.50;;;;;;5064085;28;20782;-67
2023/01/16 12:26:22;;;;;;;2.40;1.30;;;12.60;33.70;;;;;;5062590;28;20445;-67
2023/01/16 12:29:11;;;;;;;3.37;1.30;;;12.50;34.20;;;;;;5061748;28;20526;-67
2023/01/16 12:31:52;;;;;;;2.20;1.00;;;12.40;35.00;;;;;;5059276;28;20440;-67
2023/01/16 12:34:39;;;;;;;3.60;1.30;;;12.30;36.40;;;;;;5063766;28;20463;-67
2023/01/16 12:37:20;;;;;;;1.80;1.00;;;12.00;36.70;;;;;;5062829;28;20530;-67
2023/01/16 12:39:52;;;;;;;2.07;1.00;;;11.80;37.60;;;;;;5063948;28;22158;-67
2023/01/16 12:45:43;;;;;;;2.20;1.20;;;11.30;37.10;;;;;;5061013;28;20467;-67
2023/01/16 12:48:31;;;;;;;2.63;1.35;;;11.10;37.80;;;;;;5061471;28;20196;-67
2023/01/16 12:51:20;;;;;;;2.60;1.60;;;10.90;37.50;;;;;;5058816;28;20609;-67
2023/01/16 12:54:27;;;;;;;4.78;2.35;;;10.60;37.50;;;;;;5064156;28;20225;-68
2023/01/16 12:57:09;;;;;;;3.63;1.60;;;10.50;37.80;;;;;;5050517;28;20251;-67
2023/01/16 12:59:39;;;;;;;4.35;1.40;;;10.40;37.20;;;;;;5064383;28;20186;-66
2023/01/16 13:02:20;;;;;;;8.63;1.40;;;10.30;37.60;;;;;;5064137;28;20277;-67
2023/01/16 13:04:52;;;;;;;2.67;1.65;;;10.10;37.70;;;;;;5063770;28;20198;-67
2023/01/16 13:07:22;;;;;;;2.85;1.40;;;10.10;38.00;;;;;;5060935;28;20190;-67
2023/01/16 13:13:20;;;;;;;4.18;1.35;;;10.00;38.20;;;;;;5066276;28;20193;-67
2023/01/16 13:15:34;;;;;;;4.07;1.65;;;9.80;38.50;;;;;;5065533;28;20199;-67
2023/01/16 13:18:08;;;;;;;2.35;1.48;;;9.60;38.20;;;;;;5061077;28;20311;-67
2023/01/16 13:20:35;;;;;;;3.30;1.70;;;9.40;38.90;;;;;;5064399;28;20246;-67
2023/01/16 13:23:05;;;;;;;3.05;1.85;;;9.40;39.30;;;;;;5065633;28;20288;-67
2023/01/16 13:25:36;;;;;;;4.95;2.17;;;9.30;39.20;;;;;;5061884;28;20198;-67
2023/01/16 13:28:17;;;;;;;2.75;1.50;;;9.20;39.30;;;;;;5063072;28;20376;-67
2023/01/16 13:30:48;;;;;;;3.17;1.98;;;9.20;38.80;;;;;;5063338;28;20197;-66
2023/01/16 13:33:22;;;;;;;3.55;1.52;;;9.10;38.00;;;;;;5063246;28;20235;-67
2023/01/16 13:35:59;;;;;;;6.57;1.98;;;9.00;38.10;;;;;;5063129;28;20198;-67
2023/01/16 13:38:50;;;;;;;2.55;1.17;;;8.90;38.30;;;;;;5064678;28;20235;-67
2023/01/16 13:41:23;;;;;;;2.35;1.30;;;8.80;37.70;;;;;;5050147;28;20326;-67
2023/01/16 13:46:41;;;;;;;3.65;1.88;;;8.60;36.30;;;;;;5062716;28;20278;-67
2023/01/16 13:49:20;;;;;;;4.35;2.00;;;8.60;36.90;;;;;;5064173;28;20285;-67
2023/01/16 13:51:51;;;;;;;2.97;1.58;;;8.60;37.50;;;;;;5062449;28;20541;-67
2023/01/16 13:54:24;;;;;;;2.63;1.67;;;8.50;38.10;;;;;;5063074;28;20778;-67
2023/01/16 13:56:58;;;;;;;3.13;1.60;;;8.50;38.40;;;;;;5063022;28;20182;-67
2023/01/16 13:59:37;;;;;;;4.00;1.25;;;8.50;38.60;;;;;;5055967;28;20542;-67
2023/01/16 14:02:39;;;;;;;2.88;1.33;;;8.50;38.30;;;;;;5059087;28;20249;-67
2023/01/16 14:05:24;;;;;;;3.60;1.20;;;8.40;37.90;;;;;;5065243;28;20236;-67
2023/01/16 14:11:05;;;;;;;2.15;0.95;;;8.30;37.80;;;;;;5058079;28;20203;-67
2023/01/16 14:13:37;;;;;;;6.93;1.92;;;8.20;37.50;;;;;;5064060;28;20220;-67
2023/01/16 14:16:30;;;;;;;3.95;2.15;;;8.20;37.30;;;;;;5063830;28;20207;-67
2023/01/16 14:19:02;;;;;;;2.95;1.88;;;7.80;39.50;;;;;;5066477;28;20206;-67
2023/01/16 14:21:42;;;;;;;3.75;2.47;;;7.60;40.30;;;;;;5065515;28;20203;-67
2023/01/16 14:24:15;;;;;;;3.15;1.80;;;7.60;40.60;;;;;;5068292;28;20203;-67
2023/01/16 14:26:47;;;;;;;4.47;1.75;;;7.50;40.50;;;;;;5066675;28;20206;-67
2023/01/16 14:29:22;;;;;;;4.50;2.30;;;7.50;40.80;;;;;;5067528;28;20223;-67